Time;durP1;ratioP1;P1;durP2;ratioP2;P2;SDS_P1;SDS_P2;PMS_P1;PMS_P2;Temp;Humidity;BMP_temperature;BMP_pressure;BME280_temperature;BME280_humidity;BME280_pressure;Samples;Min_cycle;Max_cycle;Signal;HPM_P1;HPM_P2
2022/01/29 00:02:24;;;;;;;3.30;2.80;;;16.50;56.00;17.20;102202.00;;;;5049479;28;20193;-46
2022/01/29 00:04:50;;;;;;;4.00;2.90;;;16.50;56.20;17.10;102197.00;;;;5049052;28;20181;-49
2022/01/29 00:07:16;;;;;;;3.80;3.20;;;16.50;56.40;17.10;102198.00;;;;5049518;28;20793;-47
2022/01/29 00:09:43;;;;;;;4.60;2.90;;;16.40;55.90;17.10;102119.00;;;;5048887;28;20212;-48
2022/01/29 00:12:10;;;;;;;5.00;3.10;;;16.40;56.20;17.10;102199.00;;;;5046694;28;20190;-47
2022/01/29 00:14:36;;;;;;;3.17;2.87;;;16.40;55.90;17.10;102197.00;;;;5044075;28;20171;-49
2022/01/29 00:17:01;;;;;;;2.80;2.60;;;16.40;55.90;17.10;102201.00;;;;5038775;28;20178;-47
2022/01/29 00:19:27;;;;;;;6.83;2.83;;;16.40;55.90;17.10;102191.00;;;;5029077;28;20194;-48
2022/01/29 00:21:53;;;;;;;3.03;2.70;;;16.40;55.90;17.10;102204.00;;;;5029485;28;20167;-47
2022/01/29 00:24:19;;;;;;;3.57;2.80;;;16.30;55.90;17.10;102188.00;;;;5029741;28;20179;-47
2022/01/29 00:26:44;;;;;;;2.97;2.70;;;16.30;55.80;17.00;102178.00;;;;5029006;28;20237;-48
2022/01/29 00:29:18;;;;;;;4.27;2.77;;;16.30;56.10;17.00;102165.00;;;;5028839;28;20190;-49
2022/01/29 00:31:43;;;;;;;3.30;2.83;;;16.20;56.10;17.00;102158.00;;;;5044861;28;20155;-48
2022/01/29 00:34:09;;;;;;;3.87;2.77;;;16.20;56.20;17.00;102157.00;;;;5029141;28;20318;-48
2022/01/29 00:36:35;;;;;;;3.30;2.70;;;16.10;56.20;17.00;102147.00;;;;5041079;28;20186;-49
2022/01/29 00:39:00;;;;;;;3.87;3.00;;;16.10;56.20;17.00;102153.00;;;;5041824;28;20195;-49
2022/01/29 00:41:26;;;;;;;3.17;2.87;;;16.10;56.30;17.00;102150.00;;;;5029174;28;20179;-47
2022/01/29 00:43:52;;;;;;;2.87;2.63;;;16.10;56.00;17.00;102152.00;;;;5029427;28;20198;-48
2022/01/29 00:46:17;;;;;;;3.03;2.73;;;16.10;56.00;17.00;102165.00;;;;5028536;28;20225;-47
2022/01/29 00:48:43;;;;;;;3.10;2.80;;;16.10;56.00;17.00;102158.00;;;;5028737;28;20191;-49
2022/01/29 00:51:09;;;;;;;2.67;2.47;;;16.00;56.00;17.00;102157.00;;;;5028811;28;20179;-48
2022/01/29 00:53:35;;;;;;;2.77;2.57;;;15.90;56.10;17.00;102155.00;;;;5029121;28;20186;-47
2022/01/29 00:56:06;;;;;;;2.93;2.70;;;16.00;56.70;17.00;102148.00;;;;5028461;28;20171;-48
2022/01/29 00:58:31;;;;;;;3.03;2.50;;;15.90;56.10;17.00;102141.00;;;;5028120;28;20303;-46
2022/01/29 01:00:57;;;;;;;3.27;2.60;;;15.90;56.00;17.00;102150.00;;;;5028359;28;20668;-49
2022/01/29 01:03:23;;;;;;;3.00;2.70;;;15.90;55.90;17.00;102150.00;;;;5028196;28;20199;-50
2022/01/29 01:05:49;;;;;;;3.00;2.70;;;15.80;55.90;17.00;102145.00;;;;5028000;28;20209;-46
2022/01/29 01:08:14;;;;;;;2.97;2.67;;;15.80;56.00;17.00;102148.00;;;;5027985;28;20195;-49
2022/01/29 01:10:40;;;;;;;3.10;2.70;;;15.80;56.30;17.00;102138.00;;;;5027156;28;20179;-48
2022/01/29 01:13:06;;;;;;;3.00;2.70;;;15.80;56.20;16.90;102125.00;;;;5027957;28;20186;-49
2022/01/29 01:15:32;;;;;;;2.77;2.57;;;15.80;56.10;16.90;102132.00;;;;5028765;28;20221;-48
2022/01/29 01:17:57;;;;;;;3.43;2.87;;;15.80;56.10;16.90;102114.00;;;;5040929;28;20198;-46
2022/01/29 01:20:23;;;;;;;2.97;2.67;;;15.80;56.10;16.90;102111.00;;;;5029163;28;20173;-47
2022/01/29 01:22:49;;;;;;;3.07;2.77;;;15.80;56.10;16.90;102107.00;;;;5033657;28;20195;-47
2022/01/29 01:25:14;;;;;;;2.90;2.70;;;15.80;56.00;16.90;102107.00;;;;5031293;28;20175;-47
2022/01/29 01:27:40;;;;;;;3.27;2.97;;;15.80;56.10;16.90;102106.00;;;;5028322;28;20217;-47
2022/01/29 01:30:06;;;;;;;2.93;2.63;;;15.70;56.00;16.90;102106.00;;;;5028089;28;20728;-47
2022/01/29 01:32:32;;;;;;;3.20;2.90;;;15.60;56.10;16.80;102102.00;;;;5028458;28;20658;-47
2022/01/29 01:35:08;;;;;;;3.70;2.70;;;15.70;56.10;16.80;102112.00;;;;5030445;28;20240;-47
2022/01/29 01:37:40;;;;;;;3.67;2.80;;;15.60;56.10;16.80;102109.00;;;;5027835;28;20634;-47
2022/01/29 01:40:08;;;;;;;2.90;2.70;;;15.60;56.40;16.80;102093.00;;;;5027511;28;20185;-47
2022/01/29 01:42:34;;;;;;;3.67;3.10;;;15.60;56.30;16.80;102094.00;;;;5027628;28;20717;-48
2022/01/29 01:44:59;;;;;;;2.83;2.57;;;15.60;56.20;16.70;102084.00;;;;5027626;28;20171;-48
2022/01/29 01:47:25;;;;;;;2.80;2.60;;;15.60;56.30;16.70;102092.00;;;;5026091;28;20539;-46
2022/01/29 01:49:51;;;;;;;3.10;2.80;;;15.60;56.40;16.70;102096.00;;;;5029447;28;20163;-47
2022/01/29 01:52:17;;;;;;;3.10;2.80;;;15.60;56.40;16.70;102082.00;;;;5047181;28;20182;-49
2022/01/29 01:54:42;;;;;;;2.83;2.63;;;15.50;56.30;16.70;102080.00;;;;5046274;28;20174;-49
2022/01/29 01:57:08;;;;;;;3.10;2.80;;;15.50;56.30;16.70;102066.00;;;;5047330;28;20596;-47
2022/01/29 01:59:34;;;;;;;2.90;2.67;;;15.50;56.30;16.70;102051.00;;;;5047308;28;20194;-47
2022/01/29 02:02:00;;;;;;;2.80;2.60;;;15.50;56.60;16.60;102034.00;;;;5047533;28;20754;-48
2022/01/29 02:04:26;;;;;;;3.53;2.90;;;15.50;56.20;16.60;102028.00;;;;5047503;28;20170;-49
2022/01/29 02:06:52;;;;;;;4.00;3.10;;;15.50;56.40;16.60;102041.00;;;;5046226;28;20254;-47
2022/01/29 02:09:21;;;;;;;3.13;2.90;;;15.50;56.40;16.60;102045.00;;;;5047436;28;20194;-47
2022/01/29 02:11:55;;;;;;;3.20;2.77;;;15.40;56.30;16.60;102031.00;;;;5061441;28;20149;-47
2022/01/29 02:14:24;;;;;;;2.93;2.63;;;15.40;56.50;16.60;102028.00;;;;5048478;28;20856;-47
2022/01/29 02:16:50;;;;;;;3.33;2.90;;;15.40;56.50;16.60;102034.00;;;;5047043;28;20174;-48
2022/01/29 02:19:16;;;;;;;2.80;2.60;;;15.40;56.40;16.60;102032.00;;;;5047123;28;20191;-47
2022/01/29 02:21:42;;;;;;;3.60;3.07;;;15.40;56.50;16.50;102026.00;;;;5047139;28;20265;-48
2022/01/29 02:24:07;;;;;;;2.83;2.63;;;15.40;56.50;16.50;102016.00;;;;5045828;28;20276;-49
2022/01/29 02:26:33;;;;;;;3.73;3.03;;;15.40;56.50;16.50;101996.00;;;;5046742;28;20170;-47
2022/01/29 02:28:59;;;;;;;3.03;2.80;;;15.40;56.50;16.50;101995.00;;;;5046725;28;20194;-48
2022/01/29 02:31:25;;;;;;;3.10;2.80;;;15.30;56.50;16.50;102004.00;;;;5046331;28;20185;-48
2022/01/29 02:33:50;;;;;;;2.70;2.50;;;15.30;56.50;16.50;101984.00;;;;5047070;28;20205;-48
2022/01/29 02:36:16;;;;;;;3.63;2.80;;;15.30;56.60;16.50;102008.00;;;;5063363;28;20645;-49
2022/01/29 02:38:42;;;;;;;3.20;2.67;;;15.30;56.40;16.50;101991.00;;;;5046245;28;20579;-48
2022/01/29 02:41:08;;;;;;;3.10;2.80;;;15.30;56.40;16.40;101993.00;;;;5046150;28;20170;-48
2022/01/29 02:43:41;;;;;;;3.10;2.80;;;15.30;56.70;16.40;101983.00;;;;5046445;28;20225;-46
2022/01/29 02:46:20;;;;;;;2.67;2.47;;;15.30;56.70;16.40;101989.00;;;;5046043;28;20189;-47
2022/01/29 02:48:50;;;;;;;2.87;2.67;;;15.20;56.60;16.40;101982.00;;;;5046221;28;20269;-47
2022/01/29 02:51:16;;;;;;;2.80;2.60;;;15.30;56.70;16.40;101977.00;;;;5045962;28;20170;-47
2022/01/29 02:53:42;;;;;;;2.80;2.60;;;15.20;56.60;16.40;101964.00;;;;5046358;28;20650;-47
2022/01/29 02:56:09;;;;;;;3.00;2.80;;;15.20;57.30;16.40;101968.00;;;;5045654;28;20174;-49
2022/01/29 02:58:35;;;;;;;3.13;2.83;;;15.20;56.60;16.30;101963.00;;;;5045851;28;20267;-48
2022/01/29 03:01:01;;;;;;;3.00;2.80;;;15.20;56.60;16.30;101950.00;;;;5045649;28;20210;-46
2022/01/29 03:03:27;;;;;;;3.00;2.80;;;15.20;56.70;16.30;101889.00;;;;5045760;28;20392;-48
2022/01/29 03:05:52;;;;;;;2.90;2.70;;;15.20;56.70;16.30;101931.00;;;;5045973;28;20657;-48
2022/01/29 03:08:18;;;;;;;2.90;2.60;;;15.10;56.70;16.30;101935.00;;;;5045772;28;20850;-48
2022/01/29 03:10:46;;;;;;;2.83;2.60;;;15.10;56.90;16.30;101930.00;;;;5045646;28;20173;-48
2022/01/29 03:13:13;;;;;;;3.57;2.93;;;15.10;56.70;16.30;101930.00;;;;5045682;28;20173;-47
2022/01/29 03:15:38;;;;;;;3.10;2.90;;;15.10;56.80;16.30;101840.00;;;;5045813;28;20178;-46
2022/01/29 03:18:04;;;;;;;3.30;3.00;;;15.10;56.80;16.30;101937.00;;;;5046039;28;20190;-48
2022/01/29 03:20:30;;;;;;;3.20;2.90;;;15.10;57.50;16.30;101931.00;;;;5045537;28;20705;-48
2022/01/29 03:22:57;;;;;;;3.00;2.80;;;15.10;57.70;16.20;101931.00;;;;5045932;28;20284;-48
2022/01/29 03:25:22;;;;;;;2.90;2.70;;;15.10;57.40;16.20;101926.00;;;;5067505;28;20151;-48
2022/01/29 03:27:48;;;;;;;2.87;2.67;;;15.10;57.20;16.20;101933.00;;;;5071951;28;20166;-50
2022/01/29 03:30:14;;;;;;;3.50;3.20;;;15.10;57.20;16.20;101936.00;;;;5048083;28;20174;-48
2022/01/29 03:32:39;;;;;;;3.00;2.80;;;15.10;57.10;16.20;101929.00;;;;5045839;28;20240;-48
2022/01/29 03:35:06;;;;;;;3.60;3.30;;;15.10;57.10;16.20;101925.00;;;;5045343;28;20170;-48
2022/01/29 03:37:31;;;;;;;3.47;2.90;;;15.10;56.90;16.20;101930.00;;;;5045559;28;20189;-47
2022/01/29 03:40:00;;;;;;;3.53;2.80;;;15.10;57.00;16.20;101930.00;;;;5045393;28;20170;-47
2022/01/29 03:42:29;;;;;;;3.50;2.80;;;15.00;56.90;16.20;101924.00;;;;5044362;28;20194;-47
2022/01/29 03:44:55;;;;;;;2.90;2.70;;;15.00;57.10;16.20;101921.00;;;;5045482;28;20185;-48
2022/01/29 03:47:21;;;;;;;3.27;2.70;;;15.00;57.10;16.20;101915.00;;;;5045540;28;20316;-47
2022/01/29 03:49:46;;;;;;;3.23;2.93;;;15.00;57.30;16.20;101918.00;;;;5056162;28;20719;-49
2022/01/29 03:52:12;;;;;;;3.23;2.70;;;15.00;57.00;16.10;101910.00;;;;5049469;28;20170;-47
2022/01/29 03:54:38;;;;;;;2.90;2.63;;;15.00;56.80;16.10;101899.00;;;;5045444;28;20171;-50
2022/01/29 03:57:04;;;;;;;3.47;3.00;;;15.00;56.80;16.10;101906.00;;;;5045092;28;20178;-47
2022/01/29 03:59:29;;;;;;;3.03;2.73;;;15.00;56.80;16.10;101919.00;;;;5060876;28;20881;-50
2022/01/29 04:01:55;;;;;;;2.80;2.60;;;14.90;57.00;16.10;101909.00;;;;5045531;28;20171;-47
2022/01/29 04:04:21;;;;;;;2.97;2.77;;;14.90;57.00;16.10;101909.00;;;;5045134;28;20197;-47
2022/01/29 04:06:49;;;;;;;3.13;2.73;;;14.90;57.50;16.10;101901.00;;;;5045126;28;20852;-47
2022/01/29 04:09:14;;;;;;;3.00;2.70;;;14.90;57.40;16.10;101837.00;;;;5043764;28;20182;-47
2022/01/29 04:11:40;;;;;;;3.00;2.73;;;14.90;57.30;16.10;101900.00;;;;5045024;28;20891;-49
2022/01/29 04:14:16;;;;;;;3.20;2.90;;;14.90;57.50;16.10;101904.00;;;;5044047;28;20174;-47
2022/01/29 04:16:41;;;;;;;3.40;2.87;;;14.90;57.20;16.10;101901.00;;;;5044875;28;20185;-46
2022/01/29 04:19:07;;;;;;;2.93;2.67;;;14.80;57.40;16.00;101887.00;;;;5044937;28;20348;-48
2022/01/29 04:21:33;;;;;;;2.93;2.60;;;14.80;57.10;16.00;101808.00;;;;5045308;28;20178;-48
2022/01/29 04:23:58;;;;;;;3.03;2.70;;;14.90;57.20;16.00;101878.00;;;;5047313;28;20197;-49
2022/01/29 04:26:24;;;;;;;2.80;2.60;;;14.80;57.90;16.00;101879.00;;;;5046007;28;20171;-49
2022/01/29 04:28:51;;;;;;;6.37;2.80;;;14.80;57.40;16.00;101877.00;;;;5044956;28;20190;-48
2022/01/29 04:31:20;;;;;;;3.07;2.77;;;14.80;57.60;16.00;101869.00;;;;5044556;28;20185;-47
2022/01/29 04:33:46;;;;;;;2.60;2.40;;;14.80;57.40;16.00;101864.00;;;;5045181;28;20186;-49
2022/01/29 04:36:11;;;;;;;4.60;2.80;;;14.80;57.40;15.70;101865.00;;;;5044918;28;20657;-47
2022/01/29 04:38:37;;;;;;;7.87;2.80;;;14.80;57.30;16.00;101870.00;;;;5044700;28;20673;-48
2022/01/29 04:41:04;;;;;;;2.93;2.40;;;14.80;57.30;16.00;101864.00;;;;5042874;28;20266;-49
2022/01/29 04:43:34;;;;;;;2.97;2.70;;;14.80;57.40;16.00;101879.00;;;;5044717;28;20775;-48
2022/01/29 04:46:00;;;;;;;3.30;2.57;;;14.90;57.40;15.90;101859.00;;;;5045141;28;20166;-47
2022/01/29 04:48:26;;;;;;;3.73;2.73;;;14.80;57.10;15.90;101881.00;;;;5047482;28;20193;-48
2022/01/29 04:50:51;;;;;;;3.07;2.77;;;14.90;57.30;15.90;101874.00;;;;5048363;28;20179;-49
2022/01/29 04:53:17;;;;;;;2.87;2.67;;;14.80;57.10;15.90;101872.00;;;;5048219;28;20178;-47
2022/01/29 04:55:43;;;;;;;3.57;2.70;;;14.80;57.10;15.90;101874.00;;;;5048396;28;20178;-47
2022/01/29 04:58:08;;;;;;;3.53;2.57;;;14.80;57.10;15.90;101879.00;;;;5048280;28;20299;-46
2022/01/29 05:00:35;;;;;;;4.07;2.40;;;14.80;57.10;15.90;101870.00;;;;5047973;28;20185;-47
2022/01/29 05:03:09;;;;;;;3.87;2.80;;;14.80;57.00;15.90;101860.00;;;;5048462;28;20202;-47
2022/01/29 05:05:35;;;;;;;3.40;2.57;;;14.80;57.10;15.90;101870.00;;;;5048056;28;20591;-49
2022/01/29 05:08:01;;;;;;;3.00;2.70;;;14.80;57.10;15.90;101864.00;;;;5048390;28;20190;-47
2022/01/29 05:10:27;;;;;;;4.70;3.20;;;14.80;57.10;15.90;101863.00;;;;5048158;28;20196;-49
2022/01/29 05:12:59;;;;;;;3.57;2.90;;;14.80;57.20;15.90;101857.00;;;;5048440;28;20676;-48
2022/01/29 05:28:49;;;;;;;3.23;2.90;;;14.70;57.40;15.80;101851.00;;;;5028284;28;20272;-49
2022/01/29 05:31:15;;;;;;;5.27;2.90;;;14.70;57.50;15.80;101853.00;;;;5028300;28;20629;-48
2022/01/29 05:33:41;;;;;;;3.60;2.90;;;14.60;57.80;15.80;101843.00;;;;5028023;28;20820;-46
2022/01/29 05:36:06;;;;;;;3.40;2.93;;;14.60;57.60;15.80;101839.00;;;;5027352;28;20167;-48
2022/01/29 05:38:33;;;;;;;4.43;3.10;;;14.60;57.50;15.80;101840.00;;;;5027891;28;20202;-48
2022/01/29 05:40:59;;;;;;;2.93;2.73;;;14.60;57.50;15.80;101849.00;;;;5027849;28;20911;-48
2022/01/29 05:43:24;;;;;;;3.13;2.83;;;14.60;57.40;15.80;101830.00;;;;5027183;28;20191;-48
2022/01/29 05:45:50;;;;;;;3.27;2.60;;;14.60;57.60;15.80;101825.00;;;;5025988;28;20167;-48
2022/01/29 05:48:16;;;;;;;3.23;2.90;;;14.60;57.60;15.80;101829.00;;;;5027234;28;20198;-48
2022/01/29 05:50:41;;;;;;;2.80;2.60;;;14.50;57.60;15.80;101824.00;;;;5036260;28;20174;-47
2022/01/29 05:53:07;;;;;;;2.70;2.50;;;14.60;57.60;15.70;101824.00;;;;5047512;28;20176;-48
2022/01/29 05:55:33;;;;;;;2.63;2.43;;;14.50;57.40;15.70;101821.00;;;;5046847;28;20170;-50
2022/01/29 05:57:59;;;;;;;3.47;2.53;;;14.60;57.60;15.70;101815.00;;;;5046846;28;20641;-47
2022/01/29 06:00:24;;;;;;;2.83;2.63;;;14.60;57.60;15.70;101822.00;;;;5044358;28;20174;-48
2022/01/29 06:03:05;;;;;;;2.97;2.50;;;14.60;57.50;15.70;101815.00;;;;5046540;28;20256;-48
2022/01/29 06:05:31;;;;;;;2.80;2.50;;;14.50;57.60;15.70;101822.00;;;;5046624;28;20537;-47
2022/01/29 06:07:56;;;;;;;3.00;2.50;;;14.50;57.50;15.70;101821.00;;;;5046579;28;20190;-48
2022/01/29 06:10:24;;;;;;;2.57;2.37;;;14.50;57.60;15.70;101804.00;;;;5047089;28;20230;-46
2022/01/29 06:13:17;;;;;;;3.10;2.50;;;14.50;57.60;15.70;101806.00;;;;5042542;28;20190;-48
2022/01/29 06:15:48;;;;;;;2.43;2.23;;;14.50;57.60;15.70;101812.00;;;;5052161;28;20218;-49
2022/01/29 06:18:19;;;;;;;2.67;2.20;;;14.50;57.40;15.60;101801.00;;;;5037488;28;20276;-48
2022/01/29 06:20:50;;;;;;;2.30;2.10;;;14.60;57.50;15.60;101802.00;;;;5029095;28;20198;-47
2022/01/29 06:23:17;;;;;;;2.40;2.20;;;14.50;57.50;15.60;101798.00;;;;5029526;28;20198;-47
2022/01/29 06:25:43;;;;;;;2.40;2.20;;;14.50;57.30;15.60;101784.00;;;;5029627;28;20182;-48
2022/01/29 06:28:09;;;;;;;2.60;2.40;;;14.50;57.30;15.60;101799.00;;;;5029097;28;20187;-47
2022/01/29 06:30:35;;;;;;;2.43;2.23;;;14.60;57.30;15.60;101795.00;;;;5028839;28;20167;-47
2022/01/29 06:33:12;;;;;;;2.53;2.33;;;14.50;57.40;15.60;101797.00;;;;5029099;28;20199;-48
2022/01/29 06:35:41;;;;;;;2.40;2.20;;;14.50;57.40;15.60;101798.00;;;;5029297;28;20170;-47
2022/01/29 06:38:07;;;;;;;2.27;2.00;;;14.60;57.60;15.60;101781.00;;;;5028939;28;20198;-47
2022/01/29 06:40:33;;;;;;;2.30;2.10;;;14.50;57.50;15.60;101788.00;;;;5028874;28;20167;-47
2022/01/29 06:43:01;;;;;;;2.30;2.10;;;14.50;57.40;15.60;101773.00;;;;5029153;28;20187;-49
2022/01/29 06:45:27;;;;;;;2.50;2.30;;;14.50;57.50;15.60;101771.00;;;;5027710;28;20159;-48
2022/01/29 06:47:53;;;;;;;2.43;2.23;;;14.50;57.40;15.60;101776.00;;;;5027681;28;20183;-47
2022/01/29 06:50:19;;;;;;;2.30;2.10;;;14.50;57.60;15.60;101774.00;;;;5028328;28;20168;-48
2022/01/29 06:52:44;;;;;;;2.40;2.10;;;14.50;57.50;15.60;101769.00;;;;5031663;28;20709;-49
2022/01/29 06:55:10;;;;;;;2.30;2.10;;;14.50;57.30;15.60;101773.00;;;;5038962;28;20171;-48
2022/01/29 06:57:36;;;;;;;2.43;2.20;;;14.50;57.50;15.60;101771.00;;;;5028800;28;20245;-47
2022/01/29 07:00:03;;;;;;;2.23;2.10;;;14.40;57.40;15.60;101777.00;;;;5028515;28;20175;-48
2022/01/29 07:02:28;;;;;;;2.17;2.07;;;14.40;57.50;15.50;101772.00;;;;5027829;28;20183;-48
2022/01/29 07:04:54;;;;;;;2.37;2.17;;;14.40;57.50;15.50;101775.00;;;;5028768;28;20819;-48
2022/01/29 07:07:20;;;;;;;2.00;1.90;;;14.40;57.50;15.50;101770.00;;;;5029066;28;20171;-47
2022/01/29 07:09:45;;;;;;;2.33;2.00;;;14.40;57.60;15.50;101768.00;;;;5027978;28;20242;-47
2022/01/29 07:12:12;;;;;;;2.13;2.03;;;14.40;57.60;15.50;101766.00;;;;5027651;28;20171;-46
2022/01/29 07:14:39;;;;;;;2.40;2.20;;;14.40;57.50;15.50;101772.00;;;;5028958;28;20559;-49
2022/01/29 07:17:12;;;;;;;2.20;2.07;;;14.40;57.60;15.50;101773.00;;;;5028536;28;20221;-49
2022/01/29 07:19:38;;;;;;;2.00;1.90;;;14.30;57.70;15.50;101759.00;;;;5028415;28;20273;-47
2022/01/29 07:22:04;;;;;;;2.10;2.00;;;14.30;57.50;15.50;101764.00;;;;5028255;28;20250;-47
2022/01/29 07:24:31;;;;;;;2.00;1.90;;;14.30;57.50;15.50;101764.00;;;;5028597;28;20195;-47
2022/01/29 07:26:57;;;;;;;2.00;1.90;;;14.30;57.50;15.50;101761.00;;;;5028182;28;20668;-48
2022/01/29 07:29:22;;;;;;;2.10;2.00;;;14.30;57.70;15.50;101752.00;;;;5028008;28;20195;-48
2022/01/29 07:31:48;;;;;;;2.27;2.07;;;14.30;57.70;15.50;101750.00;;;;5029710;28;20232;-48
2022/01/29 07:34:14;;;;;;;1.90;1.80;;;14.30;57.50;15.40;101739.00;;;;5031215;28;20170;-47
2022/01/29 07:36:39;;;;;;;2.10;2.00;;;14.30;57.40;15.40;101743.00;;;;5029101;28;20183;-47
2022/01/29 07:39:05;;;;;;;2.13;2.03;;;14.30;57.70;15.40;101748.00;;;;5028079;28;20854;-48
2022/01/29 07:41:31;;;;;;;1.97;1.87;;;14.30;57.60;15.40;101747.00;;;;5028646;28;20217;-47
2022/01/29 07:43:56;;;;;;;2.27;2.03;;;14.30;57.90;15.40;101745.00;;;;5027950;28;20199;-47
2022/01/29 07:46:22;;;;;;;1.97;1.87;;;14.30;58.10;15.40;101742.00;;;;5027899;28;20175;-48
2022/01/29 07:48:48;;;;;;;2.07;1.93;;;14.20;57.80;15.40;101740.00;;;;5028114;28;20256;-48
2022/01/29 07:51:13;;;;;;;2.00;1.90;;;14.20;57.90;15.40;101744.00;;;;5026245;28;20178;-47
2022/01/29 07:53:39;;;;;;;1.93;1.80;;;14.20;57.80;15.40;101735.00;;;;5028603;28;20175;-46
2022/01/29 07:56:05;;;;;;;2.00;1.90;;;14.20;57.80;15.40;101748.00;;;;5028072;28;20570;-48
2022/01/29 07:58:31;;;;;;;2.00;1.90;;;14.20;57.70;15.40;101744.00;;;;5027769;28;20593;-46
2022/01/29 08:00:56;;;;;;;2.13;2.00;;;14.20;58.00;15.40;101748.00;;;;5027309;28;20239;-48
2022/01/29 08:03:22;;;;;;;2.03;1.93;;;14.20;58.30;15.40;101748.00;;;;5028098;28;20672;-47
2022/01/29 08:05:48;;;;;;;1.70;1.60;;;14.20;58.30;15.40;101744.00;;;;5027824;28;20174;-46
2022/01/29 08:08:13;;;;;;;2.00;1.90;;;14.20;58.30;15.30;101742.00;;;;5028130;28;20194;-48
2022/01/29 08:10:39;;;;;;;1.90;1.80;;;14.20;58.30;15.30;101741.00;;;;5027325;28;20229;-49
2022/01/29 08:13:05;;;;;;;1.90;1.80;;;14.20;58.30;15.30;101741.00;;;;5027876;28;20166;-48
2022/01/29 08:15:30;;;;;;;2.20;2.00;;;14.10;58.20;15.30;101739.00;;;;5027656;28;20175;-49
2022/01/29 08:17:56;;;;;;;1.80;1.70;;;14.10;58.60;15.30;101749.00;;;;5028365;28;20214;-50
2022/01/29 08:20:22;;;;;;;2.33;1.90;;;14.20;58.30;15.30;101742.00;;;;5027277;28;20246;-49
2022/01/29 08:22:48;;;;;;;2.00;1.90;;;14.20;58.30;15.30;101731.00;;;;5031285;28;20619;-47
2022/01/29 08:25:14;;;;;;;2.00;1.90;;;14.30;58.10;15.40;101716.00;;;;5031452;28;20572;-48
2022/01/29 08:27:40;;;;;;;11.57;2.40;;;14.50;57.90;15.40;101741.00;;;;5031641;28;20683;-47
2022/01/29 08:30:06;;;;;;;5.73;1.90;;;14.80;57.70;15.50;101728.00;;;;5031609;28;20164;-47
2022/01/29 08:32:32;;;;;;;2.10;1.90;;;15.00;57.30;15.60;101724.00;;;;5047157;28;20202;-47
2022/01/29 08:34:58;;;;;;;4.30;2.00;;;15.20;57.80;15.70;101736.00;;;;5031803;28;20584;-47
2022/01/29 08:37:23;;;;;;;2.83;2.00;;;15.30;57.20;15.80;101725.00;;;;5031165;28;20649;-47
2022/01/29 08:39:49;;;;;;;2.50;1.90;;;15.30;57.10;15.90;101717.00;;;;5031347;28;20249;-48
2022/01/29 08:42:15;;;;;;;2.80;1.77;;;15.30;57.10;15.90;101718.00;;;;5031409;28;20175;-48
2022/01/29 08:44:42;;;;;;;1.80;1.70;;;15.40;57.00;16.00;101715.00;;;;5031592;28;20190;-48
2022/01/29 08:47:08;;;;;;;2.63;1.80;;;15.40;56.90;16.00;101712.00;;;;5031053;28;20175;-49
2022/01/29 08:49:33;;;;;;;2.63;1.67;;;15.50;56.90;16.10;101714.00;;;;5029714;28;20775;-50
2022/01/29 08:51:59;;;;;;;1.93;1.70;;;15.60;56.90;16.10;101718.00;;;;5031333;28;20265;-48
2022/01/29 08:54:25;;;;;;;2.23;2.03;;;15.60;56.90;16.20;101710.00;;;;5031396;28;20179;-47
2022/01/29 08:56:50;;;;;;;2.17;1.80;;;15.60;56.90;16.20;101712.00;;;;5029819;28;20174;-48
2022/01/29 08:59:16;;;;;;;2.97;2.00;;;15.60;57.30;16.30;101722.00;;;;5030667;28;20195;-45
2022/01/29 09:01:42;;;;;;;3.23;1.80;;;15.60;57.80;16.30;101708.00;;;;5031415;28;20174;-46
2022/01/29 09:04:08;;;;;;;3.00;1.70;;;15.70;57.60;16.30;101703.00;;;;5033498;28;20223;-48
2022/01/29 09:06:34;;;;;;;3.13;1.90;;;15.70;57.40;16.40;101698.00;;;;5046452;28;20171;-49
2022/01/29 09:09:00;;;;;;;7.20;2.00;;;15.80;57.30;16.40;101702.00;;;;5032947;28;20707;-48
2022/01/29 09:11:25;;;;;;;3.73;2.00;;;15.80;57.10;16.40;101699.00;;;;5012694;28;20175;-49
2022/01/29 09:13:51;;;;;;;3.43;1.80;;;15.80;57.10;16.40;101685.00;;;;5011346;28;20186;-48
2022/01/29 09:16:17;;;;;;;2.80;1.80;;;15.80;57.10;16.50;101690.00;;;;5009937;28;20253;-47
2022/01/29 09:18:42;;;;;;;1.60;1.50;;;15.80;57.10;16.50;101665.00;;;;4993949;28;20226;-48
2022/01/29 09:21:08;;;;;;;3.67;1.70;;;15.80;57.00;16.50;101678.00;;;;5010688;28;20200;-47
2022/01/29 09:23:34;;;;;;;2.73;1.80;;;15.90;57.00;16.50;101678.00;;;;5011115;28;20195;-49
2022/01/29 09:26:01;;;;;;;3.27;1.83;;;15.90;56.90;16.60;101673.00;;;;5010420;28;20629;-46
2022/01/29 09:28:27;;;;;;;3.37;1.87;;;15.90;56.90;16.60;101665.00;;;;5011145;28;20199;-49
2022/01/29 09:30:52;;;;;;;2.50;1.80;;;16.00;57.00;16.60;101659.00;;;;5009444;28;20183;-48
2022/01/29 09:33:18;;;;;;;2.00;1.60;;;15.90;56.90;16.70;101670.00;;;;5010672;28;20711;-48
2022/01/29 09:35:44;;;;;;;1.70;1.60;;;15.90;56.80;16.70;101666.00;;;;5011105;28;20183;-46
2022/01/29 09:38:10;;;;;;;2.63;1.67;;;16.00;56.80;16.70;101668.00;;;;5011087;28;20200;-47
2022/01/29 09:40:37;;;;;;;7.17;1.90;;;16.00;56.90;16.70;101660.00;;;;5010792;28;20658;-49
2022/01/29 09:43:05;;;;;;;13.60;2.10;;;16.00;57.10;16.70;101661.00;;;;5010602;28;20195;-48
2022/01/29 09:45:31;;;;;;;10.60;1.90;;;16.10;57.40;16.80;101658.00;;;;5010841;28;20322;-47
2022/01/29 09:48:01;;;;;;;6.90;1.90;;;16.10;57.30;16.80;101663.00;;;;5009291;28;20195;-50
2022/01/29 09:50:29;;;;;;;9.27;1.97;;;16.10;57.30;16.80;101667.00;;;;5024252;28;20201;-48
2022/01/29 09:52:55;;;;;;;11.90;2.10;;;16.10;57.30;16.80;101665.00;;;;5046485;28;20179;-49
2022/01/29 09:55:21;;;;;;;7.43;2.20;;;16.20;57.40;16.80;101664.00;;;;5028410;28;20273;-50
2022/01/29 09:57:46;;;;;;;6.33;1.90;;;16.10;57.30;16.90;101660.00;;;;5027770;28;20736;-50
2022/01/29 10:00:13;;;;;;;6.33;2.10;;;16.20;57.30;16.80;101656.00;;;;5030432;28;20183;-49
2022/01/29 10:02:38;;;;;;;7.43;1.90;;;16.20;57.20;16.80;101668.00;;;;5029920;28;20207;-49
2022/01/29 10:05:05;;;;;;;7.03;1.83;;;16.20;57.10;16.90;101667.00;;;;5027328;28;20237;-49
2022/01/29 10:07:31;;;;;;;6.80;2.00;;;16.20;57.10;16.90;101663.00;;;;5028769;28;20591;-48
2022/01/29 10:09:58;;;;;;;8.60;2.20;;;16.20;57.00;16.90;101659.00;;;;5029629;28;20171;-49
2022/01/29 10:12:28;;;;;;;5.20;1.97;;;16.20;57.00;16.90;101657.00;;;;5012651;28;20175;-47
2022/01/29 10:14:59;;;;;;;4.87;2.03;;;16.30;57.00;16.90;101662.00;;;;5029933;28;20597;-50
2022/01/29 10:17:44;;;;;;;8.20;2.30;;;16.30;57.00;17.00;101664.00;;;;5030233;28;20232;-49
2022/01/29 10:20:13;;;;;;;5.07;1.73;;;16.30;56.90;17.00;101661.00;;;;5029846;28;20599;-47
2022/01/29 10:22:39;;;;;;;6.00;1.90;;;16.30;56.90;17.00;101657.00;;;;5029788;28;22052;-53
2022/01/29 10:25:09;;;;;;;3.00;1.70;;;16.30;56.90;17.00;101659.00;;;;5029794;28;20202;-48
2022/01/29 10:27:35;;;;;;;3.00;1.90;;;16.40;57.00;17.00;101632.00;;;;5029549;28;20247;-45
2022/01/29 10:30:02;;;;;;;7.33;1.87;;;16.30;56.80;17.00;101663.00;;;;5028159;28;20195;-49
2022/01/29 10:32:28;;;;;;;4.87;1.87;;;16.40;56.90;17.10;101656.00;;;;5042590;28;20213;-51
2022/01/29 10:34:56;;;;;;;2.00;1.70;;;16.40;56.70;17.10;101639.00;;;;5030245;28;20167;-49
2022/01/29 10:37:26;;;;;;;3.93;1.93;;;16.40;56.70;17.10;101639.00;;;;5033984;28;20175;-48
2022/01/29 10:39:56;;;;;;;3.93;1.60;;;16.40;57.30;17.10;101633.00;;;;5032582;28;20568;-49
2022/01/29 10:42:31;;;;;;;3.97;1.70;;;16.40;56.70;17.10;101634.00;;;;5030561;28;20163;-48
2022/01/29 10:45:01;;;;;;;3.03;1.70;;;16.40;56.70;17.10;101624.00;;;;5028917;28;20297;-50
2022/01/29 10:47:27;;;;;;;1.93;1.50;;;16.40;56.60;17.20;101614.00;;;;5029388;28;20183;-49
2022/01/29 10:49:54;;;;;;;2.70;1.70;;;16.50;56.70;17.20;101602.00;;;;5027914;28;20547;-48
2022/01/29 10:52:34;;;;;;;2.47;1.70;;;16.50;56.70;17.20;101597.00;;;;5029306;28;20262;-49
2022/01/29 10:55:05;;;;;;;1.73;1.63;;;16.50;56.70;17.20;101590.00;;;;5029760;28;20429;-48
2022/01/29 10:57:39;;;;;;;2.20;1.87;;;16.50;56.70;17.20;101593.00;;;;5029323;28;20561;-48
2022/01/29 11:00:15;;;;;;;1.77;1.50;;;16.50;56.60;17.20;101592.00;;;;5028928;28;20178;-48